Time;durP1;ratioP1;P1;durP2;ratioP2;P2;SDS_P1;SDS_P2;PMS_P1;PMS_P2;Temp;Humidity;BMP_temperature;BMP_pressure;BME280_temperature;BME280_humidity;BME280_pressure;Samples;Min_cycle;Max_cycle;Signal;HPM_P1;HPM_P2
2020/12/20 00:00:58;;;;;;;23.27;12.83;;;-0.80;99.90;;;;;;4909613;29;20036;-83
2020/12/20 00:03:23;;;;;;;24.00;12.37;;;-0.80;99.90;;;;;;4917012;29;20040;-82
2020/12/20 00:05:49;;;;;;;22.17;11.53;;;-0.80;99.90;;;;;;4928821;29;20076;-83
2020/12/20 00:08:15;;;;;;;25.47;12.60;;;-0.80;99.90;;;;;;4930622;29;20079;-82
2020/12/20 00:10:40;;;;;;;23.13;12.67;;;-0.80;99.90;;;;;;4890404;29;20123;-83
2020/12/20 00:13:06;;;;;;;23.97;13.03;;;-0.80;99.90;;;;;;4896986;29;20131;-83
2020/12/20 00:15:32;;;;;;;24.23;12.53;;;-0.70;99.90;;;;;;4893161;29;20088;-83
2020/12/20 00:17:57;;;;;;;24.47;12.00;;;-0.70;99.90;;;;;;4906423;29;20064;-84
2020/12/20 00:20:23;;;;;;;23.70;12.23;;;-0.70;99.90;;;;;;4911201;29;20040;-84
2020/12/20 00:22:50;;;;;;;25.33;13.07;;;-0.70;99.90;;;;;;4893905;29;20044;-84
2020/12/20 00:25:15;;;;;;;25.10;12.20;;;-0.70;99.90;;;;;;4906979;29;20043;-84
2020/12/20 00:27:42;;;;;;;23.57;13.07;;;-0.70;99.90;;;;;;4922785;29;20056;-82
2020/12/20 00:30:09;;;;;;;21.47;11.70;;;-0.60;99.90;;;;;;4933224;29;20036;-83
2020/12/20 00:32:35;;;;;;;22.20;12.03;;;-0.60;99.90;;;;;;4903205;29;20036;-85
2020/12/20 00:35:03;;;;;;;22.17;10.83;;;-0.60;99.90;;;;;;4903557;29;20024;-83
2020/12/20 00:37:29;;;;;;;20.23;9.97;;;-0.70;99.90;;;;;;4914178;29;20032;-82
2020/12/20 00:39:56;;;;;;;21.97;12.03;;;-0.80;99.90;;;;;;4902805;29;20055;-84
2020/12/20 00:42:21;;;;;;;23.17;12.83;;;-0.90;99.90;;;;;;4902268;29;20059;-85
2020/12/20 00:44:47;;;;;;;24.10;12.13;;;-0.80;99.90;;;;;;4901747;29;20576;-83
2020/12/20 00:47:12;;;;;;;23.33;11.47;;;-0.80;99.90;;;;;;4898398;29;20049;-85
2020/12/20 00:49:38;;;;;;;24.13;12.23;;;-0.80;99.90;;;;;;4907465;29;20055;-86
2020/12/20 00:52:05;;;;;;;21.37;11.53;;;-0.70;99.90;;;;;;4898601;29;20404;-84
2020/12/20 00:54:32;;;;;;;21.67;11.83;;;-0.70;99.90;;;;;;4890874;29;20036;-82
2020/12/20 00:56:58;;;;;;;20.83;10.87;;;-0.70;99.90;;;;;;4897217;29;20484;-84
2020/12/20 00:59:23;;;;;;;20.03;11.43;;;-0.70;99.90;;;;;;4885084;29;20047;-84
2020/12/20 01:01:50;;;;;;;23.43;12.03;;;-0.70;99.90;;;;;;4915038;29;20028;-84
2020/12/20 01:04:16;;;;;;;19.30;10.50;;;-0.70;99.90;;;;;;4912413;29;20036;-84
2020/12/20 01:06:41;;;;;;;23.00;10.80;;;-0.70;99.90;;;;;;4911581;29;20052;-84
2020/12/20 01:09:07;;;;;;;20.80;10.53;;;-0.70;99.90;;;;;;4920938;29;20025;-84
2020/12/20 01:11:34;;;;;;;21.23;11.60;;;-0.70;99.90;;;;;;4920504;29;20048;-84
2020/12/20 01:14:01;;;;;;;22.77;12.07;;;-0.70;99.90;;;;;;4902402;29;20091;-85
2020/12/20 01:16:31;;;;;;;22.40;13.00;;;-0.60;99.90;;;;;;4893506;29;20047;-85
2020/12/20 01:18:59;;;;;;;21.20;10.13;;;-0.70;99.90;;;;;;4908382;29;20205;-83
2020/12/20 01:21:27;;;;;;;23.50;11.97;;;-0.80;99.90;;;;;;4912910;29;20445;-84
2020/12/20 01:23:53;;;;;;;23.17;11.60;;;-0.80;99.90;;;;;;4890311;29;20466;-83
2020/12/20 01:58:03;;;;;;;21.90;11.23;;;-0.70;99.90;;;;;;4924961;23;20064;-82
2020/12/20 02:00:47;;;;;;;21.13;11.20;;;-0.70;99.90;;;;;;4910797;29;20039;-83
2020/12/20 02:34:09;;;;;;;26.67;11.67;;;-0.80;99.90;;;;;;5164433;23;20052;-83
2020/12/20 02:36:35;;;;;;;25.67;11.70;;;-0.90;99.90;;;;;;4902766;29;20055;-83
2020/12/20 02:39:01;;;;;;;26.10;12.90;;;-0.90;99.90;;;;;;4927419;29;20506;-82
2020/12/20 02:41:26;;;;;;;30.40;12.70;;;-0.80;99.90;;;;;;4911033;29;20074;-83
2020/12/20 02:43:52;;;;;;;26.40;12.63;;;-0.90;99.90;;;;;;4919774;29;20031;-83
2020/12/20 02:46:18;;;;;;;24.87;12.37;;;-0.90;99.90;;;;;;4903867;29;20457;-84
2020/12/20 02:48:45;;;;;;;26.33;12.73;;;-0.90;99.90;;;;;;4902853;29;20059;-83
2020/12/20 02:51:12;;;;;;;21.77;9.87;;;-0.90;99.90;;;;;;4904678;29;20032;-82
2020/12/20 02:53:38;;;;;;;23.47;10.43;;;-0.90;99.90;;;;;;4904838;29;20364;-83
2020/12/20 02:56:04;;;;;;;26.27;12.37;;;-0.90;99.90;;;;;;4904258;29;20075;-83
2020/12/20 02:58:30;;;;;;;21.20;11.50;;;-0.90;99.90;;;;;;4902554;29;20543;-85
2020/12/20 03:00:56;;;;;;;21.80;10.60;;;-0.90;99.90;;;;;;4918916;29;20059;-84
2020/12/20 03:03:21;;;;;;;24.90;12.87;;;-0.90;99.90;;;;;;4909835;29;20080;-84
2020/12/20 03:05:47;;;;;;;22.73;11.80;;;-0.90;99.90;;;;;;4926930;29;20510;-83
2020/12/20 03:08:16;;;;;;;20.47;10.13;;;-0.90;99.90;;;;;;4906195;29;20036;-84
2020/12/20 03:10:43;;;;;;;26.63;13.13;;;-0.90;99.90;;;;;;4909335;29;20525;-83
2020/12/20 03:13:09;;;;;;;22.63;11.37;;;-0.90;99.90;;;;;;4931903;29;20040;-82
2020/12/20 03:15:36;;;;;;;25.13;12.57;;;-0.90;99.90;;;;;;4907398;29;20096;-83
2020/12/20 03:18:02;;;;;;;25.60;12.93;;;-0.90;99.90;;;;;;4886966;29;20044;-82
2020/12/20 03:20:27;;;;;;;21.57;11.63;;;-0.90;99.90;;;;;;4908481;29;20042;-82
2020/12/20 03:22:53;;;;;;;22.90;12.10;;;-0.80;99.90;;;;;;4934060;29;20028;-82
2020/12/20 03:25:18;;;;;;;23.13;11.77;;;-0.80;99.90;;;;;;4912580;29;20028;-83
2020/12/20 03:27:44;;;;;;;23.70;12.57;;;-0.80;99.90;;;;;;4910181;29;20325;-84
2020/12/20 03:30:10;;;;;;;24.07;11.73;;;-0.80;99.90;;;;;;4912632;29;20074;-83
2020/12/20 03:32:35;;;;;;;23.23;11.60;;;-0.80;99.90;;;;;;4903242;29;20040;-85
2020/12/20 03:35:01;;;;;;;22.37;11.37;;;-0.90;99.90;;;;;;4924140;29;20059;-82
2020/12/20 03:37:27;;;;;;;23.60;12.30;;;-1.00;99.90;;;;;;4917214;29;20590;-83
2020/12/20 03:39:53;;;;;;;24.57;12.33;;;-1.00;99.90;;;;;;4898091;29;20070;-82
2020/12/20 03:42:18;;;;;;;23.80;12.53;;;-1.00;99.90;;;;;;4908082;29;20118;-82
2020/12/20 03:44:44;;;;;;;22.00;11.63;;;-1.00;99.90;;;;;;4908684;29;20031;-82
2020/12/20 03:47:11;;;;;;;22.50;12.00;;;-1.10;99.90;;;;;;4909582;29;20552;-82
2020/12/20 03:49:36;;;;;;;22.20;11.17;;;-1.10;99.90;;;;;;4925352;29;20103;-82
2020/12/20 03:52:02;;;;;;;26.57;12.87;;;-1.10;99.90;;;;;;4919872;29;20143;-83
2020/12/20 03:54:28;;;;;;;22.03;11.57;;;-1.10;99.90;;;;;;4930617;29;20032;-83
2020/12/20 03:56:55;;;;;;;25.23;11.90;;;-1.10;99.90;;;;;;4907681;29;20094;-82
2020/12/20 03:59:21;;;;;;;26.93;12.70;;;-1.20;99.90;;;;;;4925775;29;20111;-82
2020/12/20 04:32:51;;;;;;;27.63;13.47;;;-1.20;99.90;;;;;;5247633;23;20197;-83
2020/12/20 04:35:17;;;;;;;25.03;13.70;;;-1.20;99.90;;;;;;4932756;29;20044;-82
2020/12/20 04:37:42;;;;;;;27.20;13.80;;;-1.20;99.90;;;;;;4912647;29;20096;-84
2020/12/20 04:40:08;;;;;;;26.03;12.43;;;-1.20;99.90;;;;;;4903211;29;20036;-82
2020/12/20 04:42:33;;;;;;;24.60;12.37;;;-1.10;99.90;;;;;;4903491;29;20033;-83
2020/12/20 04:44:59;;;;;;;26.07;13.33;;;-1.10;99.90;;;;;;4904186;29;20400;-84
2020/12/20 04:47:27;;;;;;;25.87;12.67;;;-1.10;99.90;;;;;;4903773;29;20400;-83
2020/12/20 04:49:53;;;;;;;23.40;12.90;;;-1.10;99.90;;;;;;4901994;29;20054;-83
2020/12/20 04:52:19;;;;;;;23.57;11.83;;;-1.00;99.90;;;;;;4913961;29;20032;-83
2020/12/20 04:54:46;;;;;;;28.00;13.20;;;-1.10;99.90;;;;;;4902635;29;20087;-84
2020/12/20 04:57:15;;;;;;;26.87;13.93;;;-1.00;99.90;;;;;;4902040;29;20042;-83
2020/12/20 04:59:41;;;;;;;23.70;11.85;;;-1.10;99.90;;;;;;4901760;29;20032;-85
2020/12/20 05:02:08;;;;;;;26.63;13.13;;;-1.10;99.90;;;;;;4900271;29;20037;-84
2020/12/20 05:04:36;;;;;;;26.70;13.63;;;-1.00;99.90;;;;;;4900832;29;20024;-84
2020/12/20 05:07:04;;;;;;;24.93;12.90;;;-1.00;99.90;;;;;;4916687;29;20039;-85
2020/12/20 05:09:31;;;;;;;26.63;12.55;;;-1.00;99.90;;;;;;4900527;29;20024;-82
2020/12/20 05:11:57;;;;;;;22.93;11.90;;;-1.10;99.90;;;;;;4915892;29;20032;-83
2020/12/20 05:14:33;;;;;;;24.03;13.00;;;-1.10;99.90;;;;;;4899775;29;20043;-82
2020/12/20 05:16:59;;;;;;;22.73;12.13;;;-1.00;99.90;;;;;;4891677;29;20705;-84
2020/12/20 05:19:32;;;;;;;23.73;12.57;;;-1.10;99.90;;;;;;4883421;29;20032;-85
2020/12/20 05:22:15;;;;;;;23.83;12.07;;;-1.10;99.90;;;;;;4895904;29;20492;-82
2020/12/20 05:24:42;;;;;;;23.67;11.70;;;-1.00;99.90;;;;;;4916435;29;20024;-83
2020/12/20 05:27:29;;;;;;;23.27;11.90;;;-1.00;99.90;;;;;;4914928;29;20114;-83
2020/12/20 05:30:09;;;;;;;26.23;12.70;;;-1.10;99.90;;;;;;4910496;29;20036;-83
2020/12/20 05:32:40;;;;;;;23.90;12.10;;;-1.10;99.90;;;;;;4897191;29;20048;-84
2020/12/20 05:35:11;;;;;;;23.57;12.17;;;-1.10;99.90;;;;;;4902605;29;20036;-83
2020/12/20 05:37:38;;;;;;;23.87;11.63;;;-1.20;99.90;;;;;;4892036;29;20048;-82
2020/12/20 05:40:06;;;;;;;22.77;11.43;;;-1.20;99.90;;;;;;4880937;29;20037;-83
2020/12/20 05:42:32;;;;;;;23.80;11.30;;;-1.20;99.90;;;;;;4886200;29;20040;-84
2020/12/20 05:45:12;;;;;;;23.43;11.40;;;-1.20;99.90;;;;;;4899407;29;20083;-82
2020/12/20 05:47:39;;;;;;;23.23;12.48;;;-1.20;99.90;;;;;;4903558;29;20048;-84
2020/12/20 05:50:11;;;;;;;20.77;10.83;;;-1.20;99.90;;;;;;4892032;29;20035;-83
2020/12/20 05:52:37;;;;;;;22.17;11.73;;;-1.20;99.90;;;;;;4915661;29;20059;-84
2020/12/20 05:55:11;;;;;;;24.80;11.97;;;-1.10;99.90;;;;;;4900025;29;20487;-84
2020/12/20 05:57:37;;;;;;;23.27;11.77;;;-1.20;99.90;;;;;;4882854;29;20044;-83
2020/12/20 06:00:05;;;;;;;22.37;10.40;;;-1.20;99.90;;;;;;4895095;29;20075;-83
2020/12/20 06:02:30;;;;;;;25.77;10.30;;;-1.30;99.90;;;;;;4907246;29;20028;-84
2020/12/20 06:05:00;;;;;;;21.87;9.10;;;-1.40;99.90;;;;;;4916263;29;20445;-84
2020/12/20 06:07:26;;;;;;;26.83;12.40;;;-1.50;99.90;;;;;;4909953;29;20095;-83
2020/12/20 06:09:52;;;;;;;26.67;12.57;;;-1.40;99.90;;;;;;4922339;29;20052;-86
2020/12/20 06:12:22;;;;;;;25.60;12.43;;;-1.40;99.90;;;;;;4916800;28;20028;-86
2020/12/20 06:14:48;;;;;;;26.00;12.37;;;-1.40;99.90;;;;;;4905336;29;20626;-83
2020/12/20 06:17:19;;;;;;;23.57;11.67;;;-1.40;99.90;;;;;;4896814;29;20127;-84
2020/12/20 06:19:54;;;;;;;27.20;12.30;;;-1.40;99.90;;;;;;4887415;29;20032;-83
2020/12/20 06:22:23;;;;;;;28.33;12.10;;;-1.30;99.90;;;;;;4915302;29;20043;-85
2020/12/20 06:24:52;;;;;;;24.93;11.80;;;-1.30;99.90;;;;;;4895941;29;20083;-84
2020/12/20 06:27:20;;;;;;;25.83;12.48;;;-1.30;99.90;;;;;;4899733;29;20043;-82
2020/12/20 06:29:57;;;;;;;21.13;10.60;;;-1.30;99.90;;;;;;4898553;29;20084;-83
2020/12/20 06:32:26;;;;;;;22.23;11.50;;;-1.30;99.90;;;;;;4899120;29;20950;-83
2020/12/20 06:34:52;;;;;;;25.17;12.27;;;-1.30;99.90;;;;;;4901170;29;20056;-83
2020/12/20 06:37:21;;;;;;;24.03;12.40;;;-1.20;99.90;;;;;;4901868;29;20348;-83
2020/12/20 06:39:46;;;;;;;23.10;11.67;;;-1.20;99.90;;;;;;4905804;29;20068;-85
2020/12/20 06:42:12;;;;;;;22.77;12.20;;;-1.30;99.90;;;;;;4920751;29;20372;-87
2020/12/20 06:44:38;;;;;;;19.10;9.20;;;-1.20;99.90;;;;;;4891450;29;20050;-82
2020/12/20 06:47:05;;;;;;;21.03;11.07;;;-1.20;99.90;;;;;;4901494;29;20511;-83
2020/12/20 06:49:39;;;;;;;21.47;10.57;;;-1.20;99.90;;;;;;4897580;29;20441;-84
2020/12/20 06:52:24;;;;;;;22.57;11.60;;;-1.20;99.90;;;;;;4897717;29;20047;-83
2020/12/20 06:55:07;;;;;;;23.17;11.30;;;-1.30;99.90;;;;;;4901191;29;20067;-82
2020/12/20 06:57:34;;;;;;;22.33;11.80;;;-1.30;99.90;;;;;;4919552;29;20032;-81
2020/12/20 06:59:59;;;;;;;25.23;11.70;;;-1.30;99.90;;;;;;4896117;29;20413;-84
2020/12/20 07:02:45;;;;;;;24.30;11.47;;;-1.20;99.90;;;;;;4896867;29;20039;-83
2020/12/20 07:05:35;;;;;;;20.53;9.43;;;-1.30;99.90;;;;;;4896602;29;20036;-84
2020/12/20 07:08:10;;;;;;;24.27;12.97;;;-1.20;99.90;;;;;;4894841;29;20044;-83
2020/12/20 07:10:46;;;;;;;24.90;11.93;;;-1.20;99.90;;;;;;4898150;29;20043;-86
2020/12/20 07:13:13;;;;;;;24.30;12.70;;;-1.20;99.90;;;;;;4896128;29;20674;-84
2020/12/20 07:15:51;;;;;;;25.60;11.67;;;-1.20;99.90;;;;;;4899949;29;20488;-84
2020/12/20 07:18:39;;;;;;;37.90;13.33;;;-1.30;99.90;;;;;;4898330;29;20079;-84
2020/12/20 07:21:05;;;;;;;24.83;11.37;;;-1.30;99.90;;;;;;4896248;29;20033;-86
2020/12/20 07:23:31;;;;;;;25.17;12.20;;;-1.30;99.90;;;;;;4895954;29;20104;-84
2020/12/20 07:25:57;;;;;;;26.30;11.57;;;-1.30;99.90;;;;;;4898760;29;20048;-83
2020/12/20 07:28:23;;;;;;;24.83;11.73;;;-1.30;99.90;;;;;;4897937;29;20099;-83
2020/12/20 07:30:48;;;;;;;26.63;13.23;;;-1.20;99.90;;;;;;4913920;29;20036;-84
2020/12/20 07:33:18;;;;;;;23.20;11.60;;;-1.30;99.90;;;;;;4914468;29;20048;-84
2020/12/20 07:35:45;;;;;;;24.13;12.50;;;-1.30;99.90;;;;;;4898745;29;20546;-82
2020/12/20 07:38:11;;;;;;;27.37;13.43;;;-1.20;99.90;;;;;;4900230;29;20044;-82
2020/12/20 07:40:36;;;;;;;24.80;11.97;;;-1.20;99.90;;;;;;4918903;29;20031;-83
2020/12/20 07:43:02;;;;;;;24.40;12.03;;;-1.10;99.90;;;;;;4919715;29;20032;-80
2020/12/20 07:45:28;;;;;;;22.60;12.33;;;-1.10;99.90;;;;;;4916349;29;20033;-77
2020/12/20 07:47:53;;;;;;;23.63;11.90;;;-1.10;99.90;;;;;;4914278;29;20040;-77
2020/12/20 07:50:25;;;;;;;17.77;8.87;;;-1.10;99.90;;;;;;4921355;29;20051;-75
2020/12/20 07:52:51;;;;;;;21.73;11.27;;;-1.10;99.90;;;;;;4914883;29;20582;-76
2020/12/20 07:55:17;;;;;;;21.50;11.23;;;-1.20;99.90;;;;;;4914678;29;20059;-76
2020/12/20 07:57:48;;;;;;;20.37;10.67;;;-1.10;99.90;;;;;;4920452;29;20036;-77
2020/12/20 08:00:15;;;;;;;21.73;10.57;;;-1.10;99.90;;;;;;4911417;29;20139;-77
2020/12/20 08:02:42;;;;;;;20.83;10.97;;;-1.00;99.90;;;;;;4901343;29;20067;-78
2020/12/20 08:05:14;;;;;;;21.33;10.90;;;-1.00;99.90;;;;;;4897795;29;20036;-77
2020/12/20 08:07:39;;;;;;;22.17;10.90;;;-0.90;99.90;;;;;;4912334;29;20444;-79
2020/12/20 08:10:05;;;;;;;20.43;10.50;;;-0.90;99.90;;;;;;4922417;29;20092;-77
2020/12/20 08:12:35;;;;;;;22.07;10.70;;;-0.90;99.90;;;;;;4917772;29;20029;-79
2020/12/20 08:15:07;;;;;;;21.70;11.02;;;-0.90;99.90;;;;;;4906948;29;20035;-77
2020/12/20 08:17:35;;;;;;;21.13;9.50;;;-0.90;99.90;;;;;;4901586;29;20036;-76
2020/12/20 08:20:05;;;;;;;22.87;11.37;;;-1.00;99.90;;;;;;4914997;29;20032;-76
2020/12/20 08:22:31;;;;;;;;;;;-0.90;99.90;;;;;;4917949;29;20056;-75
2020/12/20 08:24:58;;;;;;;19.37;10.00;;;-0.90;99.90;;;;;;4895679;29;20358;-78
2020/12/20 08:27:29;;;;;;;20.63;10.63;;;-0.90;99.90;;;;;;4915354;29;20028;-80
2020/12/20 08:29:57;;;;;;;20.43;11.27;;;-0.90;99.90;;;;;;4914965;29;20036;-81
2020/12/20 08:32:36;;;;;;;19.37;10.80;;;-0.80;99.90;;;;;;4915441;29;20096;-79
2020/12/20 08:35:28;;;;;;;19.10;10.40;;;-0.70;99.90;;;;;;4918114;29;20032;-78
2020/12/20 08:37:57;;;;;;;22.07;10.70;;;-0.60;99.90;;;;;;4857520;29;20042;-77
2020/12/20 08:40:23;;;;;;;19.38;9.70;;;-0.50;99.90;;;;;;4856130;29;20052;-79
2020/12/20 08:42:52;;;;;;;18.87;10.13;;;-0.60;99.90;;;;;;4865485;29;20037;-80
2020/12/20 08:45:20;;;;;;;18.80;10.03;;;-0.60;99.90;;;;;;4873143;29;20062;-77
2020/12/20 08:47:47;;;;;;;20.57;9.83;;;-0.70;99.90;;;;;;4863066;29;20039;-79
2020/12/20 08:50:13;;;;;;;17.93;9.87;;;-0.80;99.90;;;;;;4865003;29;20025;-78
2020/12/20 08:52:39;;;;;;;18.97;9.90;;;-0.80;99.90;;;;;;4862811;29;20124;-81
2020/12/20 08:55:07;;;;;;;18.37;9.90;;;-0.70;99.90;;;;;;4848657;29;20033;-78
2020/12/20 08:57:36;;;;;;;19.00;10.43;;;-0.60;99.90;;;;;;4866016;29;20034;-79
2020/12/20 09:00:17;;;;;;;18.48;9.80;;;-0.60;99.90;;;;;;4855016;29;20041;-78
2020/12/20 09:02:42;;;;;;;17.30;9.00;;;-0.50;99.90;;;;;;4859538;29;20501;-77
2020/12/20 09:05:17;;;;;;;17.70;9.87;;;-0.70;99.90;;;;;;4864288;29;20048;-79
2020/12/20 09:07:44;;;;;;;18.63;10.40;;;-0.60;99.90;;;;;;4852435;29;20156;-77
2020/12/20 09:10:12;;;;;;;20.13;9.93;;;-0.50;99.90;;;;;;4854822;29;20371;-80
2020/12/20 09:12:46;;;;;;;19.70;10.00;;;-0.50;99.90;;;;;;4856621;29;20104;-80
2020/12/20 09:15:14;;;;;;;16.67;10.03;;;-0.60;99.90;;;;;;4899064;29;20090;-83
2020/12/20 09:17:51;;;;;;;20.43;9.97;;;-0.50;99.90;;;;;;4917160;29;20036;-79
2020/12/20 09:20:19;;;;;;;17.23;9.13;;;-0.50;99.90;;;;;;4907002;29;20488;-77
2020/12/20 09:22:53;;;;;;;19.43;10.70;;;-0.40;99.90;;;;;;4913727;29;20459;-80
2020/12/20 09:25:38;;;;;;;17.07;10.03;;;-0.30;99.90;;;;;;4914786;29;20036;-78
2020/12/20 09:28:20;;;;;;;20.63;9.87;;;-0.40;99.90;;;;;;4913542;29;20036;-80
2020/12/20 09:30:51;;;;;;;19.53;11.10;;;-0.40;99.90;;;;;;4906411;29;20369;-81
2020/12/20 09:33:18;;;;;;;19.67;10.23;;;-0.40;99.90;;;;;;4898220;29;20040;-79
2020/12/20 09:35:59;;;;;;;18.03;10.17;;;-0.50;99.90;;;;;;4914827;29;20128;-79
2020/12/20 09:38:36;;;;;;;17.70;9.70;;;-0.40;99.90;;;;;;4914272;29;20028;-80
2020/12/20 09:41:07;;;;;;;16.50;9.63;;;-0.20;99.90;;;;;;4915124;29;20051;-79
2020/12/20 09:43:33;;;;;;;16.43;9.30;;;-0.20;99.90;;;;;;4897681;29;20559;-80
2020/12/20 09:46:00;;;;;;;19.13;10.37;;;-0.10;99.90;;;;;;4915842;29;20114;-79
2020/12/20 09:48:27;;;;;;;18.77;10.53;;;-0.10;99.90;;;;;;4912190;29;20040;-79
2020/12/20 09:50:53;;;;;;;16.40;9.07;;;0.00;99.90;;;;;;4915521;29;20024;-78
2020/12/20 09:53:19;;;;;;;18.07;9.67;;;0.10;99.90;;;;;;4913373;29;20035;-80
2020/12/20 09:55:45;;;;;;;18.57;10.43;;;0.10;99.90;;;;;;4914767;29;20528;-77
2020/12/20 09:58:12;;;;;;;19.63;10.37;;;0.20;99.90;;;;;;4917490;29;20032;-79
2020/12/20 10:00:37;;;;;;;15.80;9.17;;;0.20;99.90;;;;;;4912562;29;20063;-77
2020/12/20 10:03:03;;;;;;;16.83;9.70;;;0.20;99.90;;;;;;4916534;29;20122;-79
2020/12/20 10:05:30;;;;;;;15.17;9.47;;;0.20;99.90;;;;;;4915387;29;20038;-83
2020/12/20 10:07:55;;;;;;;17.20;9.93;;;0.30;99.90;;;;;;4914686;29;20392;-78
2020/12/20 10:10:21;;;;;;;17.45;9.98;;;0.40;99.90;;;;;;4911372;29;20039;-78
2020/12/20 10:12:46;;;;;;;16.13;9.37;;;0.50;99.90;;;;;;4917092;29;20374;-77
2020/12/20 10:15:12;;;;;;;17.20;9.93;;;0.30;99.90;;;;;;4920225;29;20049;-77
2020/12/20 10:17:38;;;;;;;17.10;9.48;;;0.40;99.90;;;;;;4924797;29;20063;-76
2020/12/20 10:20:04;;;;;;;15.50;9.10;;;0.30;99.90;;;;;;4908486;29;20523;-78
2020/12/20 10:22:29;;;;;;;17.03;8.93;;;0.10;99.90;;;;;;4909276;29;20036;-77
2020/12/20 10:24:55;;;;;;;19.50;10.03;;;0.10;99.90;;;;;;4913402;29;20739;-82
2020/12/20 10:27:21;;;;;;;17.03;9.90;;;0.00;99.90;;;;;;4912507;29;20036;-78
2020/12/20 10:29:47;;;;;;;16.37;10.20;;;0.20;99.90;;;;;;4912817;29;20140;-78
2020/12/20 10:32:13;;;;;;;16.87;9.07;;;0.20;99.90;;;;;;4912458;29;20156;-78
2020/12/20 10:34:40;;;;;;;17.60;9.73;;;0.10;99.90;;;;;;4914171;29;20126;-78
2020/12/20 10:37:06;;;;;;;17.87;10.03;;;0.20;99.90;;;;;;4912903;29;20353;-79
2020/12/20 10:39:31;;;;;;;19.10;10.87;;;0.30;99.90;;;;;;4913108;29;20036;-77
2020/12/20 10:41:57;;;;;;;18.43;11.03;;;0.50;99.90;;;;;;4911665;29;20058;-78
2020/12/20 10:44:23;;;;;;;19.13;10.75;;;0.70;99.90;;;;;;4912992;29;20024;-78
2020/12/20 10:46:50;;;;;;;17.85;9.55;;;0.60;99.90;;;;;;4914370;29;20051;-78
2020/12/20 10:49:16;;;;;;;16.07;8.60;;;0.40;99.90;;;;;;4911170;29;20095;-77
2020/12/20 10:51:43;;;;;;;18.37;8.93;;;0.40;99.90;;;;;;4912125;29;20028;-77
2020/12/20 10:54:08;;;;;;;18.23;10.17;;;0.40;99.90;;;;;;4915220;29;20028;-79
2020/12/20 10:56:35;;;;;;;15.73;9.27;;;0.50;99.90;;;;;;4911521;29;20036;-79
2020/12/20 10:59:00;;;;;;;16.53;9.27;;;0.70;99.90;;;;;;4911933;29;20860;-79
2020/12/20 11:01:26;;;;;;;17.47;10.23;;;0.60;99.90;;;;;;4912839;29;20056;-79
2020/12/20 11:03:51;;;;;;;18.53;10.47;;;0.70;99.90;;;;;;4911771;29;20059;-81
2020/12/20 11:06:22;;;;;;;18.93;9.80;;;0.90;99.90;;;;;;4914998;29;20032;-83
2020/12/20 11:08:48;;;;;;;17.83;9.73;;;0.90;99.90;;;;;;4899931;29;20064;-80
2020/12/20 11:11:15;;;;;;;17.33;9.13;;;0.90;99.90;;;;;;4914799;29;20027;-81
2020/12/20 11:13:42;;;;;;;19.35;9.52;;;1.00;99.90;;;;;;4912677;29;20043;-80
2020/12/20 11:16:16;;;;;;;17.15;9.52;;;1.10;99.90;;;;;;4916476;29;20024;-81
2020/12/20 11:18:43;;;;;;;19.05;10.15;;;1.30;99.90;;;;;;4893469;29;20033;-80
2020/12/20 11:21:10;;;;;;;17.17;10.13;;;1.50;99.90;;;;;;4885341;29;20036;-81
2020/12/20 11:23:37;;;;;;;18.77;10.80;;;1.70;99.90;;;;;;4914816;29;20028;-81
2020/12/20 11:26:18;;;;;;;17.90;9.15;;;1.90;99.90;;;;;;4921327;29;20043;-80
2020/12/20 11:28:45;;;;;;;16.80;9.32;;;2.00;99.90;;;;;;4911417;29;20076;-81
2020/12/20 11:31:11;;;;;;;19.67;10.77;;;1.60;99.90;;;;;;4910825;29;20029;-82
2020/12/20 11:33:38;;;;;;;16.23;9.75;;;1.40;99.90;;;;;;4896334;29;20048;-80
2020/12/20 11:36:04;;;;;;;15.82;8.65;;;1.60;99.90;;;;;;4899447;29;20047;-83
2020/12/20 11:38:30;;;;;;;17.65;10.02;;;1.60;99.90;;;;;;4890254;29;20028;-81
2020/12/20 11:40:56;;;;;;;16.30;9.85;;;1.50;99.90;;;;;;4895497;29;20112;-80
2020/12/20 11:43:22;;;;;;;18.98;10.02;;;1.60;99.90;;;;;;4913187;29;20028;-82
2020/12/20 11:45:48;;;;;;;16.52;9.70;;;1.50;99.90;;;;;;4894719;29;20028;-80
2020/12/20 11:48:14;;;;;;;17.95;9.95;;;1.50;99.90;;;;;;4896101;29;20699;-81
2020/12/20 11:50:40;;;;;;;16.67;9.73;;;1.40;99.90;;;;;;4915292;29;20028;-81
2020/12/20 11:53:06;;;;;;;16.10;9.85;;;1.50;99.90;;;;;;4912312;29;20024;-83
2020/12/20 11:55:31;;;;;;;16.10;9.20;;;1.40;99.90;;;;;;4912452;29;20762;-83
2020/12/20 11:57:58;;;;;;;18.52;10.40;;;1.50;99.90;;;;;;4912443;29;20024;-82
2020/12/20 12:00:24;;;;;;;19.67;10.45;;;1.40;99.90;;;;;;4896086;29;20032;-80
2020/12/20 12:02:50;;;;;;;18.33;10.30;;;1.60;99.90;;;;;;4912081;29;20020;-79
2020/12/20 12:05:17;;;;;;;16.30;9.48;;;1.60;99.90;;;;;;4913478;29;20032;-81
2020/12/20 12:07:50;;;;;;;20.08;10.57;;;1.40;99.90;;;;;;4897734;29;20091;-82
2020/12/20 12:10:16;;;;;;;17.52;9.93;;;1.30;99.90;;;;;;4914360;29;20028;-81
2020/12/20 12:13:55;;;;;;;15.85;10.38;;;1.40;99.90;;;;;;4913339;29;20078;-86
2020/12/20 12:17:30;;;;;;;16.88;10.00;;;1.40;99.90;;;;;;4810117;29;20076;-87
2020/12/20 12:21:12;;;;;;;;;;;;;;;;;;;;;
2020/12/20 12:27:42;;;;;;;20.70;11.52;;;1.30;99.90;;;;;;4584045;31;20111;-86
2020/12/20 12:30:37;;;;;;;21.47;11.77;;;1.40;99.90;;;;;;4530223;31;20054;-86
2020/12/20 12:33:06;;;;;;;17.60;10.27;;;1.20;99.90;;;;;;4535560;31;20592;-86
2020/12/20 12:35:31;;;;;;;20.83;11.13;;;1.30;99.90;;;;;;4528462;31;20046;-84
2020/12/20 12:38:05;;;;;;;17.37;11.07;;;1.30;99.90;;;;;;4511107;31;20042;-86
2020/12/20 12:40:31;;;;;;;17.83;10.07;;;1.30;99.90;;;;;;4506531;31;20143;-85
2020/12/20 12:42:58;;;;;;;21.58;10.75;;;1.30;99.90;;;;;;4512780;31;20591;-90
2020/12/20 12:45:25;;;;;;;19.07;11.20;;;1.10;99.90;;;;;;4532480;31;20026;-90
2020/12/20 12:51:37;;;;;;;18.00;9.73;;;1.00;99.90;;;;;;4523869;31;20068;-89
2020/12/20 12:54:07;;;;;;;18.35;10.18;;;0.80;99.90;;;;;;4555082;31;20050;-89
2020/12/20 12:56:33;;;;;;;21.67;11.70;;;0.80;99.90;;;;;;4610950;30;20048;-91
2020/12/20 12:59:00;;;;;;;21.57;11.67;;;0.80;99.90;;;;;;4633025;30;20154;-90
2020/12/20 13:01:30;;;;;;;19.10;11.60;;;0.90;99.90;;;;;;4789682;29;20072;-87
2020/12/20 13:03:55;;;;;;;21.23;10.88;;;0.90;99.90;;;;;;4792603;29;20054;-82
2020/12/20 13:06:21;;;;;;;23.23;11.67;;;1.00;99.90;;;;;;4805494;29;20559;-82
2020/12/20 13:08:47;;;;;;;23.13;11.97;;;1.00;99.90;;;;;;4811248;29;20039;-81
2020/12/20 13:11:13;;;;;;;20.55;11.93;;;1.10;99.90;;;;;;4798480;29;20067;-82
2020/12/20 13:13:40;;;;;;;16.77;10.88;;;1.10;99.90;;;;;;4812608;29;20042;-83
2020/12/20 13:16:05;;;;;;;19.27;12.00;;;1.20;99.90;;;;;;4818193;29;20419;-81
2020/12/20 13:18:31;;;;;;;19.33;11.57;;;1.20;99.90;;;;;;4798212;29;20034;-82
2020/12/20 13:20:57;;;;;;;18.67;10.98;;;1.20;99.90;;;;;;4829557;29;20041;-82
2020/12/20 13:23:22;;;;;;;17.67;10.30;;;1.20;99.90;;;;;;4920442;29;20032;-83
2020/12/20 13:25:50;;;;;;;17.10;9.50;;;1.20;99.90;;;;;;4900497;29;20823;-80
2020/12/20 13:28:16;;;;;;;17.92;10.38;;;1.30;99.90;;;;;;4897334;29;20084;-78
2020/12/20 13:30:42;;;;;;;17.55;9.63;;;1.20;99.90;;;;;;4915327;29;20031;-77
2020/12/20 13:33:08;;;;;;;17.93;10.17;;;1.20;99.90;;;;;;4914028;29;20048;-78
2020/12/20 13:35:34;;;;;;;19.43;11.23;;;1.20;99.90;;;;;;4912551;29;20380;-76
2020/12/20 13:38:01;;;;;;;18.38;10.32;;;1.00;99.90;;;;;;4912659;29;20032;-77
2020/12/20 13:40:26;;;;;;;18.05;11.05;;;1.00;99.90;;;;;;4913796;29;20028;-77
2020/12/20 13:42:52;;;;;;;18.42;10.00;;;1.00;99.90;;;;;;4914943;29;20024;-76
2020/12/20 13:45:19;;;;;;;19.42;10.88;;;1.10;99.90;;;;;;4914601;29;20516;-76
2020/12/20 13:47:45;;;;;;;18.98;11.38;;;1.20;99.90;;;;;;4913281;29;20040;-77
2020/12/20 13:50:10;;;;;;;18.50;11.27;;;1.20;99.90;;;;;;4913040;29;20024;-77
2020/12/20 13:52:38;;;;;;;20.90;11.43;;;1.20;99.90;;;;;;4914411;29;20071;-78
2020/12/20 13:55:04;;;;;;;20.42;11.95;;;1.00;99.90;;;;;;4910913;29;20461;-80
2020/12/20 13:57:31;;;;;;;19.52;11.52;;;1.10;99.90;;;;;;4911673;29;20052;-77
2020/12/20 13:59:57;;;;;;;19.93;12.70;;;1.10;99.90;;;;;;4910709;29;20403;-77
2020/12/20 14:02:22;;;;;;;19.75;11.70;;;1.20;99.90;;;;;;4913521;29;20028;-77
2020/12/20 14:04:48;;;;;;;19.20;11.75;;;1.20;99.90;;;;;;4897020;29;20035;-79
2020/12/20 14:07:14;;;;;;;19.17;10.68;;;1.20;99.90;;;;;;4902524;29;20067;-78
2020/12/20 14:09:39;;;;;;;19.73;11.75;;;1.20;99.90;;;;;;4912551;29;20064;-80
2020/12/20 14:12:05;;;;;;;19.25;11.23;;;1.30;99.90;;;;;;4906537;29;20056;-79
2020/12/20 14:14:30;;;;;;;21.30;11.80;;;1.30;99.90;;;;;;4904309;29;20608;-77
2020/12/20 14:16:56;;;;;;;20.73;11.40;;;1.40;99.90;;;;;;4913132;29;20047;-77
2020/12/20 14:19:22;;;;;;;19.77;11.50;;;1.40;99.90;;;;;;4915234;29;20091;-77
2020/12/20 14:21:47;;;;;;;20.95;11.70;;;1.50;99.90;;;;;;4913237;29;20028;-76